createdAt,value
2018-09-03T00:00:59.519Z,17.64
2018-09-03T00:02:00.080Z,17.60
2018-09-03T00:03:00.642Z,17.55
2018-09-03T00:04:01.187Z,17.64
2018-09-03T00:05:01.753Z,17.52
2018-09-03T00:06:02.294Z,17.45
2018-09-03T00:07:02.847Z,17.52
2018-09-03T00:08:03.407Z,17.51
2018-09-03T00:09:03.957Z,17.48
2018-09-03T00:10:04.513Z,17.49
2018-09-03T00:11:05.087Z,17.51
2018-09-03T00:12:05.609Z,17.49
2018-09-03T00:13:06.170Z,17.46
2018-09-03T00:14:06.718Z,17.45
2018-09-03T00:15:07.266Z,17.51
2018-09-03T00:17:09.377Z,17.42
2018-09-03T00:18:09.941Z,17.42
2018-09-03T00:19:10.495Z,17.39
2018-09-03T00:20:11.051Z,17.42
2018-09-03T00:21:11.602Z,17.33
2018-09-03T00:22:12.155Z,17.37
2018-09-03T00:23:12.710Z,17.27
2018-09-03T00:24:13.264Z,17.31
2018-09-03T00:25:13.821Z,17.30
2018-09-03T00:26:14.391Z,17.33
2018-09-03T00:27:14.926Z,17.34
2018-09-03T00:28:15.470Z,17.31
2018-09-03T00:29:16.025Z,17.37
2018-09-03T00:30:16.570Z,17.34
2018-09-03T00:31:17.129Z,17.37
2018-09-03T00:32:17.691Z,17.29
2018-09-03T00:33:18.240Z,17.29
2018-09-03T00:34:18.792Z,17.23
2018-09-03T00:35:19.339Z,17.27
2018-09-03T00:36:19.892Z,17.19
2018-09-03T00:37:20.443Z,17.18
2018-09-03T00:38:20.992Z,17.16
2018-09-03T00:39:21.542Z,17.18
2018-09-03T00:40:22.092Z,17.16
2018-09-03T00:41:22.649Z,17.15
2018-09-03T00:42:23.203Z,17.21
2018-09-03T00:43:23.744Z,17.15
2018-09-03T00:44:24.291Z,17.15
2018-09-03T00:45:24.836Z,17.24
2018-09-03T00:46:25.390Z,17.23
2018-09-03T00:47:25.947Z,17.33
2018-09-03T00:48:26.492Z,17.39
2018-09-03T00:49:27.048Z,17.41
2018-09-03T00:50:27.593Z,17.37
2018-09-03T00:51:28.149Z,17.30
2018-09-03T00:52:28.702Z,17.34
2018-09-03T00:53:29.267Z,17.34
2018-09-03T00:54:29.809Z,17.33
2018-09-03T00:55:30.366Z,17.42
2018-09-03T00:56:30.919Z,17.39
2018-09-03T00:57:31.469Z,17.46
2018-09-03T00:58:32.024Z,17.49
2018-09-03T00:59:32.576Z,17.49
2018-09-03T01:00:33.117Z,17.60
2018-09-03T01:01:33.673Z,17.59
2018-09-03T01:02:34.233Z,17.63
2018-09-03T01:03:34.787Z,17.63
2018-09-03T01:04:35.339Z,17.72
2018-09-03T01:05:35.885Z,17.71
2018-09-03T01:06:36.442Z,17.71
2018-09-03T01:07:36.994Z,17.70
2018-09-03T01:08:37.539Z,17.77
2018-09-03T01:09:38.093Z,17.74
2018-09-03T01:10:38.641Z,17.74
2018-09-03T01:11:39.197Z,17.72
2018-09-03T01:12:39.751Z,17.74
2018-09-03T01:13:40.303Z,17.82
2018-09-03T01:14:40.860Z,17.75
2018-09-03T01:15:41.425Z,17.85
2018-09-03T01:16:41.979Z,17.83
2018-09-03T01:17:42.531Z,17.75
2018-09-03T01:18:43.085Z,17.82
2018-09-03T01:19:43.633Z,17.83
2018-09-03T01:20:44.180Z,17.86
2018-09-03T01:21:44.731Z,17.83
2018-09-03T01:22:45.289Z,17.75
2018-09-03T01:23:45.840Z,17.80
2018-09-03T01:24:46.398Z,17.74
2018-09-03T01:25:46.948Z,17.75
2018-09-03T01:26:47.511Z,17.77
2018-09-03T01:27:48.060Z,17.82
2018-09-03T01:28:48.617Z,17.85
2018-09-03T01:29:49.169Z,17.82
2018-09-03T01:30:49.725Z,17.80
2018-09-03T01:31:50.276Z,17.83
2018-09-03T01:32:50.830Z,17.83
2018-09-03T01:33:51.384Z,17.80
2018-09-03T01:34:51.935Z,17.85
2018-09-03T01:35:52.482Z,17.83
2018-09-03T01:36:53.029Z,17.85
2018-09-03T01:37:53.586Z,17.90
2018-09-03T01:38:54.131Z,17.97
2018-09-03T01:39:54.683Z,18.04
2018-09-03T01:40:55.232Z,17.97
2018-09-03T01:41:55.783Z,18.00
2018-09-03T01:42:56.333Z,18.10
2018-09-03T01:43:56.887Z,18.11
2018-09-03T01:44:57.437Z,18.04
2018-09-03T01:45:57.986Z,18.14
2018-09-03T01:46:58.539Z,18.07
2018-09-03T01:47:59.095Z,18.10
2018-09-03T01:48:59.652Z,18.11
2018-09-03T01:50:00.205Z,18.19
2018-09-03T01:51:00.757Z,18.10
2018-09-03T01:52:01.305Z,18.25
2018-09-03T01:53:01.865Z,18.14
2018-09-03T01:54:02.444Z,18.14
2018-09-03T01:55:03.002Z,18.16
2018-09-03T01:56:03.558Z,18.18
2018-09-03T01:57:04.104Z,18.11
2018-09-03T01:58:04.653Z,18.18
2018-09-03T01:59:05.209Z,18.18
2018-09-03T02:00:05.757Z,18.11
2018-09-03T02:01:06.313Z,18.11
2018-09-03T02:02:06.860Z,18.01
2018-09-03T02:03:07.412Z,18.14
2018-09-03T02:04:07.965Z,18.10
2018-09-03T02:05:08.526Z,18.16
2018-09-03T02:06:09.077Z,18.08
2018-09-03T02:07:09.631Z,18.11
2018-09-03T02:08:10.185Z,18.11
2018-09-03T02:09:10.739Z,18.12
2018-09-03T02:10:11.296Z,18.11
2018-09-03T02:11:11.849Z,18.10
2018-09-03T02:12:12.404Z,17.93
2018-09-03T02:13:12.957Z,17.98
2018-09-03T02:14:13.503Z,17.93
2018-09-03T02:15:14.059Z,18.01
2018-09-03T02:16:14.608Z,18.00
2018-09-03T02:17:15.161Z,17.92
2018-09-03T02:18:15.718Z,18.01
2018-09-03T02:19:16.275Z,17.95
2018-09-03T02:20:16.837Z,17.90
2018-09-03T02:21:17.385Z,18.00
2018-09-03T02:22:17.940Z,18.01
2018-09-03T02:23:18.492Z,18.00
2018-09-03T02:24:19.043Z,18.03
2018-09-03T02:25:19.596Z,18.12
2018-09-03T02:26:20.151Z,18.03
2018-09-03T02:27:20.701Z,18.05
2018-09-03T02:28:21.254Z,17.95
2018-09-03T02:29:21.799Z,17.93
2018-09-03T02:30:22.353Z,18.03
2018-09-03T02:31:22.905Z,17.97
2018-09-03T02:32:23.458Z,17.83
2018-09-03T02:33:24.004Z,17.83
2018-09-03T02:34:24.557Z,17.87
2018-09-03T02:35:25.111Z,17.93
2018-09-03T02:36:25.668Z,18.00
2018-09-03T02:37:26.227Z,17.98
2018-09-03T02:38:26.773Z,18.01
2018-09-03T02:39:27.329Z,18.00
2018-09-03T02:40:27.877Z,17.98
2018-09-03T02:41:28.431Z,18.03
2018-09-03T02:42:28.986Z,18.01
2018-09-03T02:43:29.538Z,18.05
2018-09-03T02:44:30.083Z,18.00
2018-09-03T02:45:30.639Z,17.98
2018-09-03T02:46:31.190Z,17.85
2018-09-03T02:47:31.745Z,17.92
2018-09-03T02:48:32.302Z,17.77
2018-09-03T02:49:32.848Z,17.72
2018-09-03T02:50:33.402Z,17.82
2018-09-03T02:51:33.954Z,17.83
2018-09-03T02:52:34.508Z,17.85
2018-09-03T02:53:35.063Z,17.80
2018-09-03T02:54:35.620Z,17.86
2018-09-03T02:55:36.175Z,17.86
2018-09-03T02:56:36.727Z,17.79
2018-09-03T02:57:37.278Z,17.82
2018-09-03T02:58:37.825Z,17.86
2018-09-03T02:59:38.382Z,17.79
2018-09-03T03:00:38.935Z,17.80
2018-09-03T03:01:39.482Z,17.75
2018-09-03T03:02:40.035Z,17.85
2018-09-03T03:03:40.595Z,17.85
2018-09-03T03:04:41.147Z,17.85
2018-09-03T03:05:41.697Z,17.85
2018-09-03T03:06:42.253Z,17.83
2018-09-03T03:07:42.805Z,17.86
2018-09-03T03:08:43.358Z,17.86
2018-09-03T03:09:43.912Z,17.86
2018-09-03T03:10:44.465Z,17.85
2018-09-03T03:11:45.065Z,17.85
2018-09-03T03:12:45.572Z,17.83
2018-09-03T03:13:46.126Z,17.80
2018-09-03T03:14:46.681Z,17.82
2018-09-03T03:15:47.231Z,17.89
2018-09-03T03:16:47.789Z,17.83
2018-09-03T03:17:48.340Z,17.86
2018-09-03T03:18:48.885Z,17.86
2018-09-03T03:19:49.436Z,17.82
2018-09-03T03:20:49.993Z,17.80
2018-09-03T03:21:50.548Z,17.82
2018-09-03T03:22:51.101Z,17.85
2018-09-03T03:23:51.654Z,17.80
2018-09-03T03:24:52.210Z,17.85
2018-09-03T03:25:52.769Z,17.86
2018-09-03T03:26:53.319Z,17.83
2018-09-03T03:27:53.869Z,17.83
2018-09-03T03:28:54.423Z,17.83
2018-09-03T03:29:54.978Z,17.82
2018-09-03T03:30:55.533Z,17.80
2018-09-03T03:31:56.089Z,17.74
2018-09-03T03:32:56.645Z,17.87
2018-09-03T03:33:57.192Z,17.80
2018-09-03T03:34:57.743Z,17.71
2018-09-03T03:35:58.289Z,17.77
2018-09-03T03:36:58.846Z,17.72
2018-09-03T03:37:59.403Z,17.82
2018-09-03T03:38:59.954Z,17.80
2018-09-03T03:40:00.498Z,17.82
2018-09-03T03:41:01.052Z,17.87
2018-09-03T03:42:01.604Z,17.87
2018-09-03T03:43:02.149Z,17.86
2018-09-03T03:44:02.704Z,17.79
2018-09-03T03:45:03.263Z,17.79
2018-09-03T03:46:03.824Z,17.80
2018-09-03T03:47:04.363Z,17.85
2018-09-03T03:48:04.912Z,17.75
2018-09-03T03:49:05.469Z,17.80
2018-09-03T03:50:06.015Z,17.77
2018-09-03T03:51:06.571Z,17.82
2018-09-03T03:52:07.124Z,17.82
2018-09-03T03:53:07.677Z,17.85
2018-09-03T03:54:08.230Z,17.80
2018-09-03T03:55:08.861Z,17.85
2018-09-03T03:56:09.328Z,17.86
2018-09-03T03:57:09.882Z,17.83
2018-09-03T03:58:10.438Z,17.80
2018-09-03T03:59:10.985Z,17.93
2018-09-03T04:00:11.547Z,17.83
2018-09-03T04:01:12.088Z,17.86
2018-09-03T04:02:12.644Z,17.82
2018-09-03T04:03:13.201Z,17.77
2018-09-03T04:04:13.749Z,17.80
2018-09-03T04:05:14.307Z,17.79
2018-09-03T04:06:14.854Z,17.80
2018-09-03T04:07:15.407Z,17.80
2018-09-03T04:08:15.956Z,17.70
2018-09-03T04:09:16.510Z,17.74
2018-09-03T04:10:17.061Z,17.70
2018-09-03T04:11:17.616Z,17.72
2018-09-03T04:12:18.167Z,17.74
2018-09-03T04:13:18.722Z,17.79
2018-09-03T04:14:19.275Z,17.85
2018-09-03T04:15:19.829Z,17.77
2018-09-03T04:16:20.382Z,17.86
2018-09-03T04:17:20.934Z,17.86
2018-09-03T04:18:21.483Z,17.87
2018-09-03T04:19:22.037Z,17.83
2018-09-03T04:20:22.593Z,17.83
2018-09-03T04:21:23.149Z,17.79
2018-09-03T04:22:23.693Z,17.87
2018-09-03T04:23:24.361Z,17.86
2018-09-03T04:24:24.796Z,17.86
2018-09-03T04:25:25.348Z,17.85
2018-09-03T04:26:25.904Z,17.82
2018-09-03T04:27:26.457Z,17.86
2018-09-03T04:28:27.013Z,17.87
2018-09-03T04:29:27.566Z,17.87
2018-09-03T04:30:28.117Z,17.82
2018-09-03T04:31:28.667Z,17.83
2018-09-03T04:32:29.224Z,17.93
2018-09-03T04:33:29.776Z,17.86
2018-09-03T04:34:30.332Z,17.83
2018-09-03T04:35:30.887Z,17.82
2018-09-03T04:36:31.445Z,17.86
2018-09-03T04:37:31.997Z,17.83
2018-09-03T04:38:32.602Z,17.80
2018-09-03T04:39:33.102Z,17.82
2018-09-03T04:40:33.652Z,17.83
2018-09-03T04:41:34.209Z,17.80
2018-09-03T04:42:34.766Z,17.90
2018-09-03T04:43:35.321Z,17.86
2018-09-03T04:44:35.873Z,17.80
2018-09-03T04:45:36.433Z,17.79
2018-09-03T04:46:36.989Z,17.80
2018-09-03T04:47:37.568Z,17.79
2018-09-03T04:48:38.104Z,17.85
2018-09-03T04:49:38.658Z,17.74
2018-09-03T04:50:39.213Z,17.75
2018-09-03T04:51:39.770Z,17.71
2018-09-03T04:52:40.323Z,17.75
2018-09-03T04:53:40.880Z,17.74
2018-09-03T04:54:41.448Z,17.71
2018-09-03T04:55:41.981Z,17.70
2018-09-03T04:56:42.538Z,17.70
2018-09-03T04:57:43.095Z,17.59
2018-09-03T04:58:43.658Z,17.67
2018-09-03T04:59:44.209Z,17.70
2018-09-03T05:00:44.764Z,17.74
2018-09-03T05:01:45.391Z,17.77
2018-09-03T05:02:45.879Z,17.72
2018-09-03T05:03:46.434Z,17.74
2018-09-03T05:04:47.000Z,17.72
2018-09-03T05:05:47.660Z,17.75
2018-09-03T05:06:48.108Z,17.77
2018-09-03T05:07:48.659Z,17.82
2018-09-03T05:08:49.217Z,17.80
2018-09-03T05:09:49.776Z,17.85
2018-09-03T05:10:50.407Z,17.85
2018-09-03T05:11:51.046Z,17.85
2018-09-03T05:12:51.565Z,17.80
2018-09-03T05:13:52.115Z,17.85
2018-09-03T05:14:52.678Z,17.79
2018-09-03T05:15:53.231Z,17.83
2018-09-03T05:16:53.789Z,17.83
2018-09-03T05:17:54.349Z,17.82
2018-09-03T05:18:54.898Z,17.77
2018-09-03T05:19:55.454Z,17.85
2018-09-03T05:20:56.013Z,17.75
2018-09-03T05:21:56.569Z,17.86
2018-09-03T05:22:57.129Z,17.85
2018-09-03T05:23:57.682Z,17.80
2018-09-03T05:24:58.240Z,17.89
2018-09-03T05:25:58.810Z,17.83
2018-09-03T05:26:59.369Z,17.86
2018-09-03T05:27:59.929Z,17.85
2018-09-03T05:29:00.490Z,17.97
2018-09-03T05:30:01.047Z,17.95
2018-09-03T05:31:01.660Z,17.95
2018-09-03T05:32:02.163Z,17.92
2018-09-03T05:33:02.721Z,18.03
2018-09-03T05:34:03.272Z,17.98
2018-09-03T05:35:03.837Z,18.00
2018-09-03T05:36:04.400Z,17.90
2018-09-03T05:37:04.957Z,17.98
2018-09-03T05:38:05.514Z,17.87
2018-09-03T05:39:06.066Z,17.98
2018-09-03T05:40:06.620Z,18.03
2018-09-03T05:41:07.182Z,18.00
2018-09-03T05:42:07.743Z,18.03
2018-09-03T05:43:08.421Z,18.00
2018-09-03T05:44:09.063Z,18.03
2018-09-03T05:45:09.626Z,18.12
2018-09-03T05:46:10.183Z,18.12
2018-09-03T05:47:10.744Z,18.14
2018-09-03T05:48:11.301Z,18.10
2018-09-03T05:49:11.858Z,18.14
2018-09-03T05:50:12.498Z,18.20
2018-09-03T05:51:12.971Z,18.14
2018-09-03T05:52:13.529Z,18.12
2018-09-03T05:53:14.087Z,18.26
2018-09-03T05:54:14.647Z,18.18
2018-09-03T05:55:15.207Z,18.22
2018-09-03T05:56:15.775Z,18.19
2018-09-03T05:57:16.335Z,18.29
2018-09-03T05:58:16.900Z,18.29
2018-09-03T05:59:17.602Z,18.35
2018-09-03T06:00:18.107Z,18.41
2018-09-03T06:01:18.661Z,18.38
2018-09-03T06:02:19.221Z,18.48
2018-09-03T06:03:19.780Z,18.45
2018-09-03T06:04:20.358Z,18.48
2018-09-03T06:05:20.912Z,18.50
2018-09-03T06:06:21.477Z,18.56
2018-09-03T06:07:22.036Z,18.56
2018-09-03T06:08:22.591Z,18.65
2018-09-03T06:09:23.145Z,18.65
2018-09-03T06:10:23.714Z,18.66
2018-09-03T06:11:24.269Z,18.73
2018-09-03T06:12:24.829Z,18.81
2018-09-03T06:13:25.409Z,18.81
2018-09-03T06:14:25.960Z,18.83
2018-09-03T06:15:26.516Z,18.83
2018-09-03T06:16:27.075Z,18.77
2018-09-03T06:17:27.635Z,18.83
2018-09-03T06:18:28.197Z,18.78
2018-09-03T06:19:28.762Z,18.81
2018-09-03T06:20:30.315Z,18.78
2018-09-03T06:21:30.889Z,18.90
2018-09-03T06:22:31.447Z,18.99
2018-09-03T06:23:32.001Z,19.00
2018-09-03T06:24:32.561Z,19.00
2018-09-03T06:25:33.122Z,19.06
2018-09-03T06:26:33.698Z,19.00
2018-09-03T06:27:34.244Z,19.07
2018-09-03T06:28:34.803Z,19.02
2018-09-03T06:29:35.366Z,19.12
2018-09-03T06:30:35.971Z,19.07
2018-09-03T06:31:36.527Z,19.16
2018-09-03T06:32:37.090Z,19.12
2018-09-03T06:33:37.649Z,19.27
2018-09-03T06:34:38.209Z,19.36
2018-09-03T06:35:38.764Z,19.48
2018-09-03T06:36:39.336Z,19.37
2018-09-03T06:37:39.894Z,19.44
2018-09-03T06:38:40.463Z,19.40
2018-09-03T06:39:41.042Z,19.52
2018-09-03T06:40:41.577Z,19.55
2018-09-03T06:41:42.135Z,19.58
2018-09-03T06:42:42.701Z,19.67
2018-09-03T06:43:43.263Z,19.77
2018-09-03T06:44:43.821Z,19.73
2018-09-03T06:45:44.387Z,19.73
2018-09-03T06:46:44.942Z,19.81
2018-09-03T06:47:45.501Z,19.80
2018-09-03T06:48:46.059Z,19.84
2018-09-03T06:49:46.621Z,19.81
2018-09-03T06:50:47.182Z,19.80
2018-09-03T06:51:47.743Z,19.81
2018-09-03T06:52:48.656Z,19.85
2018-09-03T06:53:49.172Z,19.84
2018-09-03T06:54:49.721Z,19.80
2018-09-03T06:55:50.293Z,19.88
2018-09-03T06:56:50.855Z,19.92
2018-09-03T06:57:51.407Z,19.98
2018-09-03T06:58:51.973Z,19.98
2018-09-03T06:59:52.533Z,20.03
2018-09-03T07:00:53.093Z,20.03
2018-09-03T07:01:53.650Z,20.02
2018-09-03T07:02:54.205Z,19.91
2018-09-03T07:03:54.768Z,19.99
2018-09-03T07:04:55.322Z,20.04
2018-09-03T07:05:55.885Z,20.14
2018-09-03T07:06:56.494Z,20.19
2018-09-03T07:07:57.008Z,20.24
2018-09-03T07:08:57.571Z,20.22
2018-09-03T07:09:58.162Z,20.29
2018-09-03T07:10:58.721Z,20.26
2018-09-03T07:11:59.284Z,20.34
2018-09-03T07:12:59.846Z,20.17
2018-09-03T07:14:00.413Z,20.35
2018-09-03T07:15:00.978Z,20.43
2018-09-03T07:16:01.544Z,20.48
2018-09-03T07:17:02.112Z,20.60
2018-09-03T07:18:02.672Z,20.77
2018-09-03T07:19:03.229Z,20.81
2018-09-03T07:20:03.787Z,20.78
2018-09-03T07:21:04.357Z,20.78
2018-09-03T07:22:04.918Z,20.96
2018-09-03T07:23:05.488Z,20.99
2018-09-03T07:24:06.243Z,21.03
2018-09-03T07:25:06.807Z,21.10
2018-09-03T07:26:07.367Z,21.27
2018-09-03T07:27:07.926Z,21.25
2018-09-03T07:28:08.489Z,21.36
2018-09-03T07:29:09.047Z,21.42
2018-09-03T07:30:09.610Z,21.51
2018-09-03T07:31:10.176Z,21.51
2018-09-03T07:32:10.741Z,21.55
2018-09-03T07:33:11.308Z,21.54
2018-09-03T07:34:11.868Z,21.52
2018-09-03T07:35:12.491Z,21.52
2018-09-03T07:36:12.987Z,21.58
2018-09-03T07:37:13.555Z,21.54
2018-09-03T07:38:14.128Z,21.55
2018-09-03T07:39:14.692Z,21.55
2018-09-03T07:40:15.248Z,21.54
2018-09-03T07:41:15.812Z,21.49
2018-09-03T07:42:16.375Z,21.51
2018-09-03T07:43:16.934Z,21.54
2018-09-03T07:44:17.533Z,21.55
2018-09-03T07:45:18.062Z,21.55
2018-09-03T07:46:18.631Z,21.39
2018-09-03T07:47:19.195Z,21.37
2018-09-03T07:48:19.759Z,21.40
2018-09-03T07:49:20.372Z,21.51
2018-09-03T07:50:20.933Z,21.39
2018-09-03T07:51:21.500Z,21.40
2018-09-03T07:52:22.068Z,21.35
2018-09-03T07:53:22.629Z,21.39
2018-09-03T07:54:23.195Z,21.37
2018-09-03T07:55:23.763Z,21.51
2018-09-03T07:56:24.325Z,21.62
2018-09-03T07:57:24.893Z,21.72
2018-09-03T07:58:25.459Z,21.89
2018-09-03T07:59:26.028Z,21.95
2018-09-03T08:00:26.613Z,21.92
2018-09-03T08:01:27.223Z,21.98
2018-09-03T08:02:27.788Z,22.07
2018-09-03T08:03:28.407Z,22.03
2018-09-03T08:04:28.964Z,21.96
2018-09-03T08:05:29.527Z,22.05
2018-09-03T08:06:30.092Z,22.07
2018-09-03T08:07:30.727Z,22.14
2018-09-03T08:08:31.214Z,22.10
2018-09-03T08:09:31.776Z,22.23
2018-09-03T08:10:32.336Z,22.20
2018-09-03T08:11:32.929Z,22.18
2018-09-03T08:12:33.464Z,22.23
2018-09-03T08:13:34.028Z,22.17
2018-09-03T08:14:34.597Z,22.24
2018-09-03T08:15:35.171Z,22.21
2018-09-03T08:16:35.725Z,22.24
2018-09-03T08:17:36.289Z,22.23
2018-09-03T08:18:36.857Z,22.21
2018-09-03T08:19:37.437Z,22.21
2018-09-03T08:20:37.985Z,22.14
2018-09-03T08:21:38.547Z,21.96
2018-09-03T08:22:39.120Z,21.95
2018-09-03T08:23:39.683Z,21.93
2018-09-03T08:24:40.244Z,21.93
2018-09-03T08:25:40.802Z,21.80
2018-09-03T08:26:41.363Z,21.80
2018-09-03T08:27:41.936Z,21.76
2018-09-03T08:28:42.493Z,21.79
2018-09-03T08:29:43.060Z,21.70
2018-09-03T08:30:43.621Z,21.76
2018-09-03T08:31:44.183Z,21.70
2018-09-03T08:32:44.758Z,21.73
2018-09-03T08:33:45.326Z,21.75
2018-09-03T08:34:45.889Z,21.72
2018-09-03T08:35:46.498Z,21.64
2018-09-03T08:36:47.018Z,21.64
2018-09-03T08:37:47.576Z,21.60
2018-09-03T08:38:48.131Z,21.60
2018-09-03T08:39:48.749Z,21.62
2018-09-03T08:40:49.247Z,21.64
2018-09-03T08:41:49.853Z,21.49
2018-09-03T08:42:50.424Z,21.37
2018-09-03T08:43:50.984Z,21.39
2018-09-03T08:44:51.587Z,21.35
2018-09-03T08:45:52.108Z,21.30
2018-09-03T08:46:52.665Z,21.28
2018-09-03T08:47:53.228Z,21.45
2018-09-03T08:48:53.784Z,21.43
2018-09-03T08:49:54.349Z,21.42
2018-09-03T08:50:54.918Z,21.43
2018-09-03T08:51:55.480Z,21.54
2018-09-03T08:52:56.040Z,21.61
2018-09-03T08:53:56.601Z,21.64
2018-09-03T08:54:57.167Z,21.77
2018-09-03T08:55:57.731Z,21.91
2018-09-03T08:56:58.296Z,22.03
2018-09-03T08:57:58.910Z,22.21
2018-09-03T08:58:59.489Z,22.46
2018-09-03T09:00:00.046Z,22.57
2018-09-03T09:01:00.610Z,22.65
2018-09-03T09:02:01.178Z,22.87
2018-09-03T09:03:01.747Z,23.18
2018-09-03T09:04:02.312Z,23.34
2018-09-03T09:05:02.878Z,23.51
2018-09-03T09:06:03.460Z,23.68
2018-09-03T09:07:04.026Z,23.90
2018-09-03T09:08:04.592Z,24.21
2018-09-03T09:09:05.166Z,24.43
2018-09-03T09:10:05.735Z,25.01
2018-09-03T09:11:06.304Z,25.56
2018-09-03T09:12:06.866Z,26.37
2018-09-03T09:13:07.434Z,26.74
2018-09-03T09:14:07.998Z,27.14
2018-09-03T09:15:08.568Z,27.68
2018-09-03T09:16:09.169Z,27.83
2018-09-03T09:17:09.732Z,27.67
2018-09-03T09:18:10.308Z,27.51
2018-09-03T09:19:10.873Z,27.43
2018-09-03T09:20:11.446Z,27.39
2018-09-03T09:21:12.015Z,27.03
2018-09-03T09:22:12.580Z,26.84
2018-09-03T09:23:13.149Z,26.59
2018-09-03T09:24:13.744Z,26.29
2018-09-03T09:25:14.294Z,25.99
2018-09-03T09:26:14.870Z,25.71
2018-09-03T09:27:15.463Z,25.43
2018-09-03T09:28:16.210Z,25.16
2018-09-03T09:29:16.776Z,25.01
2018-09-03T09:30:17.339Z,24.91
2018-09-03T09:31:17.915Z,24.64
2018-09-03T09:32:18.476Z,24.57
2018-09-03T09:33:19.117Z,24.54
2018-09-03T09:34:19.679Z,24.58
2018-09-03T09:35:20.245Z,24.39
2018-09-03T09:36:20.813Z,24.18
2018-09-03T09:37:21.382Z,24.11
2018-09-03T09:38:21.948Z,24.03
2018-09-03T09:39:22.510Z,23.96
2018-09-03T09:40:23.079Z,23.91
2018-09-03T09:41:23.644Z,23.88
2018-09-03T09:42:24.213Z,23.77
2018-09-03T09:43:24.778Z,23.68
2018-09-03T09:44:25.347Z,23.62
2018-09-03T09:45:25.914Z,23.58
2018-09-03T09:46:26.477Z,23.53
2018-09-03T09:47:27.045Z,23.43
2018-09-03T09:48:27.604Z,23.35
2018-09-03T09:49:28.167Z,23.21
2018-09-03T09:50:28.727Z,23.03
2018-09-03T09:51:29.288Z,22.84
2018-09-03T09:52:29.855Z,22.87
2018-09-03T09:53:30.429Z,22.75
2018-09-03T09:54:30.981Z,22.72
2018-09-03T09:55:31.545Z,22.65
2018-09-03T09:56:32.110Z,22.72
2018-09-03T09:57:32.677Z,22.66
2018-09-03T09:58:33.237Z,22.73
2018-09-03T09:59:33.795Z,22.78
2018-09-03T10:00:34.352Z,22.75
2018-09-03T10:01:34.921Z,22.70
2018-09-03T10:02:35.499Z,22.69
2018-09-03T10:03:36.060Z,22.66
2018-09-03T10:04:36.630Z,22.65
2018-09-03T10:05:37.189Z,22.78
2018-09-03T10:06:37.757Z,22.78
2018-09-03T10:07:38.320Z,22.81
2018-09-03T10:08:38.884Z,22.81
2018-09-03T10:09:39.479Z,22.83
2018-09-03T10:10:40.050Z,22.78
2018-09-03T10:11:40.588Z,22.87
2018-09-03T10:12:41.159Z,22.81
2018-09-03T10:13:41.718Z,22.83
2018-09-03T10:14:42.277Z,22.93
2018-09-03T10:15:42.844Z,22.84
2018-09-03T10:16:43.412Z,22.79
2018-09-03T10:17:43.984Z,22.88
2018-09-03T10:18:44.552Z,22.84
2018-09-03T10:19:45.116Z,22.93
2018-09-03T10:20:45.685Z,23.06
2018-09-03T10:21:46.322Z,23.18
2018-09-03T10:22:46.799Z,23.24
2018-09-03T10:23:47.363Z,23.46
2018-09-03T10:24:47.937Z,23.59
2018-09-03T10:25:48.503Z,23.68
2018-09-03T10:26:49.077Z,23.88
2018-09-03T10:27:49.637Z,24.11
2018-09-03T10:28:50.206Z,24.51
2018-09-03T10:29:50.876Z,25.01
2018-09-03T10:30:51.463Z,25.43
2018-09-03T10:31:52.061Z,25.78
2018-09-03T10:32:52.604Z,26.02
2018-09-03T10:33:53.179Z,26.63
2018-09-03T10:34:54.739Z,26.37
2018-09-03T10:35:55.308Z,26.21
2018-09-03T10:36:55.879Z,25.95
2018-09-03T10:37:56.447Z,25.75
2018-09-03T10:38:57.017Z,25.68
2018-09-03T10:39:57.588Z,25.51
2018-09-03T10:40:58.154Z,25.50
2018-09-03T10:41:58.727Z,25.33
2018-09-03T10:42:59.322Z,25.20
2018-09-03T10:43:59.864Z,25.25
2018-09-03T10:45:00.423Z,25.24
2018-09-03T10:46:00.989Z,24.98
2018-09-03T10:47:01.567Z,25.06
2018-09-03T10:48:02.108Z,24.92
2018-09-03T10:49:02.679Z,24.98
2018-09-03T10:50:03.246Z,25.01
2018-09-03T10:51:03.811Z,24.94
2018-09-03T10:52:04.377Z,24.86
2018-09-03T10:53:04.949Z,24.36
2018-09-03T10:54:05.519Z,24.18
2018-09-03T10:55:06.085Z,24.16
2018-09-03T10:56:06.763Z,24.03
2018-09-03T10:57:07.314Z,23.94
2018-09-03T10:58:07.955Z,23.95
2018-09-03T10:59:08.519Z,24.03
2018-09-03T11:00:09.085Z,23.96
2018-09-03T11:01:09.643Z,23.94
2018-09-03T11:02:10.214Z,23.98
2018-09-03T11:03:10.782Z,23.80
2018-09-03T11:04:11.342Z,23.83
2018-09-03T11:05:11.902Z,23.74
2018-09-03T11:06:12.506Z,23.76
2018-09-03T11:07:13.073Z,23.51
2018-09-03T11:08:13.639Z,23.53
2018-09-03T11:09:14.207Z,23.51
2018-09-03T11:10:14.769Z,23.44
2018-09-03T11:11:15.399Z,23.53
2018-09-03T11:12:15.897Z,23.51
2018-09-03T11:13:16.475Z,23.44
2018-09-03T11:14:17.101Z,23.54
2018-09-03T11:15:17.602Z,23.53
2018-09-03T11:16:18.173Z,23.59
2018-09-03T11:17:18.759Z,23.69
2018-09-03T11:18:19.328Z,23.68
2018-09-03T11:19:19.899Z,23.58
2018-09-03T11:20:20.458Z,23.58
2018-09-03T11:21:21.184Z,23.59
2018-09-03T11:22:21.653Z,23.59
2018-09-03T11:23:22.208Z,23.59
2018-09-03T11:24:22.767Z,23.68
2018-09-03T11:25:23.340Z,23.72
2018-09-03T11:26:23.904Z,23.81
2018-09-03T11:27:24.466Z,23.91
2018-09-03T11:28:25.047Z,23.94
2018-09-03T11:29:25.594Z,23.87
2018-09-03T11:30:26.163Z,23.91
2018-09-03T11:31:26.739Z,23.96
2018-09-03T11:32:27.316Z,23.80
2018-09-03T11:33:27.872Z,23.64
2018-09-03T11:34:28.443Z,23.61
2018-09-03T11:35:29.013Z,23.65
2018-09-03T11:36:29.573Z,23.72
2018-09-03T11:37:30.140Z,23.74
2018-09-03T11:38:30.710Z,23.64
2018-09-03T11:39:31.281Z,23.62
2018-09-03T11:40:31.850Z,23.76
2018-09-03T11:41:32.413Z,23.96
2018-09-03T11:42:32.972Z,24.06
2018-09-03T11:43:33.532Z,24.17
2018-09-03T11:44:34.099Z,24.16
2018-09-03T11:45:34.662Z,24.35
2018-09-03T11:46:35.227Z,24.41
2018-09-03T11:47:35.790Z,24.56
2018-09-03T11:48:36.366Z,24.80
2018-09-03T11:49:36.946Z,24.91
2018-09-03T11:50:37.517Z,24.89
2018-09-03T11:51:38.096Z,24.88
2018-09-03T11:52:38.657Z,24.96
2018-09-03T11:53:39.224Z,25.04
2018-09-03T11:54:39.799Z,25.01
2018-09-03T11:55:40.370Z,24.86
2018-09-03T11:56:40.931Z,24.96
2018-09-03T11:57:41.500Z,24.96
2018-09-03T11:58:42.064Z,25.07
2018-09-03T11:59:42.639Z,25.13
2018-09-03T12:00:43.196Z,25.16
2018-09-03T12:01:43.764Z,24.96
2018-09-03T12:02:44.326Z,24.99
2018-09-03T12:03:44.888Z,24.95
2018-09-03T12:04:45.457Z,25.02
2018-09-03T12:05:46.023Z,24.94
2018-09-03T12:06:46.702Z,24.94
2018-09-03T12:07:47.264Z,24.80
2018-09-03T12:08:47.799Z,24.98
2018-09-03T12:09:48.370Z,24.98
2018-09-03T12:10:48.935Z,24.84
2018-09-03T12:11:49.522Z,24.94
2018-09-03T12:12:50.104Z,25.06
2018-09-03T12:13:50.675Z,25.17
2018-09-03T12:14:51.235Z,25.26
2018-09-03T12:15:51.858Z,25.06
2018-09-03T12:16:52.417Z,24.95
2018-09-03T12:17:52.981Z,24.99
2018-09-03T12:18:53.615Z,25.04
2018-09-03T12:19:54.172Z,24.98
2018-09-03T12:20:54.821Z,25.07
2018-09-03T12:21:55.348Z,25.01
2018-09-03T12:22:55.908Z,25.04
2018-09-03T12:23:56.475Z,24.95
2018-09-03T12:24:57.052Z,24.80
2018-09-03T12:25:57.641Z,25.01
2018-09-03T12:26:58.202Z,25.07
2018-09-03T12:27:58.773Z,25.06
2018-09-03T12:28:59.339Z,25.17
2018-09-03T12:29:59.906Z,25.07
2018-09-03T12:31:00.467Z,25.13
2018-09-03T12:33:16.489Z,25.39
2018-09-03T12:34:17.063Z,25.58
2018-09-03T12:35:17.634Z,25.62
2018-09-03T12:36:18.191Z,25.61
2018-09-03T12:37:18.755Z,25.32
2018-09-03T12:38:19.325Z,25.21
2018-09-03T12:39:19.886Z,25.14
2018-09-03T12:40:20.458Z,25.18
2018-09-03T12:41:21.016Z,25.21
2018-09-03T12:42:22.176Z,25.16
2018-09-03T12:43:22.754Z,25.11
2018-09-03T12:44:23.319Z,24.81
2018-09-03T12:45:23.885Z,24.56
2018-09-03T12:46:24.514Z,24.32
2018-09-03T12:47:25.019Z,24.24
2018-09-03T12:48:25.599Z,24.28
2018-09-03T12:49:26.180Z,24.41
2018-09-03T12:50:26.749Z,24.43
2018-09-03T12:51:27.310Z,24.46
2018-09-03T12:52:27.892Z,24.43
2018-09-03T12:53:28.450Z,24.43
2018-09-03T12:54:29.014Z,24.61
2018-09-03T12:55:29.583Z,24.64
2018-09-03T12:56:30.148Z,24.50
2018-09-03T12:57:30.711Z,24.35
2018-09-03T12:58:31.274Z,24.24
2018-09-03T12:59:31.846Z,24.31
2018-09-03T13:00:38.673Z,24.27
2018-09-03T13:01:32.974Z,24.24
2018-09-03T13:02:39.417Z,24.33